Time;durP1;ratioP1;P1;durP2;ratioP2;P2;SDS_P1;SDS_P2;PMS_P1;PMS_P2;Temp;Humidity;BMP_temperature;BMP_pressure;BME280_temperature;BME280_humidity;BME280_pressure;Samples;Min_cycle;Max_cycle;Signal;HPM_P1;HPM_P2
2022/01/19 00:01:18;;;;;;;;;;;;;;;8.82;37.84;101327.72;4464064;32;34283;-64
2022/01/19 00:03:46;;;;;;;;;;;;;;;8.62;38.20;101323.22;4463870;32;34124;-64
2022/01/19 00:06:13;;;;;;;;;;;;;;;8.56;38.34;101326.13;4462228;32;34637;-64
2022/01/19 00:08:41;;;;;;;;;;;;;;;8.55;38.11;101324.41;4463504;32;33775;-64
2022/01/19 00:11:08;;;;;;;;;;;;;;;8.48;38.58;101328.28;4463184;32;34061;-64
2022/01/19 00:13:35;;;;;;;;;;;;;;;8.36;38.29;101327.78;4462552;32;34271;-66
2022/01/19 00:16:03;;;;;;;;;;;;;;;8.17;38.79;101324.97;4461451;32;33156;-67
2022/01/19 00:18:30;;;;;;;;;;;;;;;7.73;39.96;101332.03;4461175;32;35683;-66
2022/01/19 00:20:58;;;;;;;;;;;;;;;7.93;39.17;101341.97;4462719;32;33797;-66
2022/01/19 00:23:25;;;;;;;;;;;;;;;7.85;40.48;101344.91;4460695;32;32649;-66
2022/01/19 00:25:53;;;;;;;;;;;;;;;8.03;39.23;101342.47;4459026;32;34790;-67
2022/01/19 00:28:20;;;;;;;;;;;;;;;8.14;39.39;101337.56;4462208;32;34059;-67
2022/01/19 00:30:48;;;;;;;;;;;;;;;8.12;38.86;101352.75;4462878;32;34483;-68
2022/01/19 00:33:18;;;;;;;;;;;;;;;7.76;39.97;101361.22;4456109;32;34042;-66
2022/01/19 00:35:47;;;;;;;;;;;;;;;7.50;40.56;101358.66;4464621;32;34631;-65
2022/01/19 00:38:15;;;;;;;;;;;;;;;7.21;40.82;101368.56;4461919;32;33665;-66
2022/01/19 00:40:42;;;;;;;;;;;;;;;7.40;40.46;101368.78;4464789;32;34042;-67
2022/01/19 00:43:13;;;;;;;;;;;;;;;7.37;40.01;101367.09;4463978;32;34477;-66
2022/01/19 00:45:41;;;;;;;;;;;;;;;7.31;40.83;101371.78;4461980;31;34001;-66
2022/01/19 00:48:25;;;;;;;;;;;;;;;7.34;40.69;101369.88;4467202;32;33769;-66
2022/01/19 00:50:53;;;;;;;;;;;;;;;7.43;41.13;101374.88;4464231;32;35427;-65
2022/01/19 00:53:20;;;;;;;;;;;;;;;7.46;40.21;101372.09;4464245;32;35307;-66
2022/01/19 00:55:48;;;;;;;;;;;;;;;7.62;39.83;101383.06;4464137;32;33146;-66
2022/01/19 00:58:15;;;;;;;;;;;;;;;7.28;41.25;101390.53;4462587;31;32828;-66
2022/01/19 01:00:43;;;;;;;;;;;;;;;7.69;39.49;101376.59;4464265;32;34158;-67
2022/01/19 01:03:10;;;;;;;;;;;;;;;7.52;40.08;101375.47;4464711;32;33989;-66
2022/01/19 01:05:38;;;;;;;;;;;;;;;7.67;39.90;101356.25;4466575;32;33210;-68
2022/01/19 01:08:05;;;;;;;;;;;;;;;7.88;39.69;101358.13;4462523;32;34176;-66
2022/01/19 01:10:41;;;;;;;;;;;;;;;7.84;39.27;101368.97;4466386;32;31436;-66
2022/01/19 01:16:17;;;;;;;;;;;;;;;7.64;40.16;101351.91;4466030;32;33340;-66
2022/01/19 01:18:45;;;;;;;;;;;;;;;7.93;39.16;101348.16;4456441;32;34133;-68
2022/01/19 01:21:12;;;;;;;;;;;;;;;7.87;39.08;101347.53;4464839;32;33588;-66
2022/01/19 01:23:40;;;;;;;;;;;;;;;7.77;39.57;101343.44;4460984;32;33485;-66
2022/01/19 01:26:09;;;;;;;;;;;;;;;7.86;38.96;101343.97;4463405;32;32316;-66
2022/01/19 01:28:36;;;;;;;;;;;;;;;7.72;39.70;101338.28;4462475;32;32597;-65
2022/01/19 01:31:04;;;;;;;;;;;;;;;7.49;40.57;101332.97;4464576;32;35181;-65
2022/01/19 01:33:32;;;;;;;;;;;;;;;7.22;41.03;101322.34;4464931;32;32497;-66
2022/01/19 01:36:00;;;;;;;;;;;;;;;7.74;39.63;101319.56;4464356;32;34467;-67
2022/01/19 01:38:27;;;;;;;;;;;;;;;7.82;39.16;101312.16;4463040;32;33733;-67
2022/01/19 01:41:13;;;;;;;;;;;;;;;7.74;39.66;101303.56;4465166;32;35008;-67
2022/01/19 01:43:42;;;;;;;;;;;;;;;7.75;39.45;101306.19;4465141;32;34167;-67
2022/01/19 01:46:21;;;;;;;;;;;;;;;7.74;39.02;101303.56;4462002;32;33247;-67
2022/01/19 01:48:49;;;;;;;;;;;;;;;7.79;39.27;101305.16;4462898;32;34087;-66
2022/01/19 01:54:04;;;;;;;;;;;;;;;7.74;39.11;101295.56;4464303;32;34270;-66
2022/01/19 01:56:32;;;;;;;;;;;;;;;7.53;40.07;101300.81;4473270;32;34808;-65
2022/01/19 01:59:00;;;;;;;;;;;;;;;7.59;39.66;101305.03;4466526;32;34144;-66
2022/01/19 02:01:31;;;;;;;;;;;;;;;7.78;39.13;101297.22;4459878;32;34215;-66
2022/01/19 02:03:59;;;;;;;;;;;;;;;7.44;40.68;101293.16;4464544;32;34225;-66
2022/01/19 02:06:33;;;;;;;;;;;;;;;7.78;38.80;101297.22;4464534;32;32666;-67
2022/01/19 02:21:37;;;;;;;;;;;;;;;7.67;39.71;101278.94;4464193;32;34578;-66
2022/01/19 02:22:29;;;;;;;;;;;;;;;7.41;40.20;101279.94;4464656;32;34413;-66
2022/01/19 02:24:56;;;;;;;;;;;;;;;7.07;41.16;101275.00;4467587;32;34114;-67
2022/01/19 02:41:15;;;;;;;;;;;;;;;7.34;40.04;101257.13;4466916;32;34010;-66
2022/01/19 02:43:46;;;;;;;;;;;;;;;7.63;39.33;101258.69;4464722;32;34239;-66
2022/01/19 02:49:14;;;;;;;;;;;;;;;7.76;38.63;101253.75;4461318;32;33582;-68
2022/01/19 02:51:42;;;;;;;;;;;;;;;7.56;39.45;101252.72;4461796;32;34694;-66
2022/01/19 02:54:13;;;;;;;;;;;;;;;7.32;39.90;101238.56;4464303;32;33850;-66
2022/01/19 02:56:44;;;;;;;;;;;;;;;7.59;39.30;101235.75;4457976;32;34920;-66
2022/01/19 02:59:21;;;;;;;;;;;;;;;7.83;38.41;101224.16;4461803;32;33120;-67
2022/01/19 03:10:07;;;;;;;;;;;;;;;7.77;38.30;101229.72;4461787;32;32316;-67
2022/01/19 03:12:34;;;;;;;;;;;;;;;7.94;37.71;101224.56;4463850;32;33912;-67
2022/01/19 03:15:01;;;;;;;;;;;;;;;7.86;38.22;101220.47;4464537;32;35254;-67
2022/01/19 03:17:29;;;;;;;;;;;;;;;7.80;38.82;101220.72;4461348;32;33926;-68
2022/01/19 03:19:56;;;;;;;;;;;;;;;7.72;38.61;101217.50;4464944;32;33152;-67
2022/01/19 03:22:31;;;;;;;;;;;;;;;7.80;38.33;101208.28;4462974;32;33524;-68
2022/01/19 03:24:59;;;;;;;;;;;;;;;7.84;38.65;101214.34;4460327;32;34368;-67
2022/01/19 03:27:26;;;;;;;;;;;;;;;7.79;38.97;101205.66;4463952;32;32974;-67
2022/01/19 03:29:53;;;;;;;;;;;;;;;8.16;37.84;101205.91;4461568;32;31900;-66
2022/01/19 03:32:21;;;;;;;;;;;;;;;8.22;37.84;101209.22;4465056;32;33666;-67
2022/01/19 03:34:48;;;;;;;;;;;;;;;8.20;37.24;101211.09;4463875;32;35152;-65
2022/01/19 03:37:16;;;;;;;;;;;;;;;8.23;37.14;101210.97;4465320;32;33761;-65
2022/01/19 03:39:43;;;;;;;;;;;;;;;8.33;36.62;101207.00;4462734;31;33307;-66
2022/01/19 03:42:10;;;;;;;;;;;;;;;8.43;36.19;101207.50;4465101;32;33907;-65
2022/01/19 03:44:39;;;;;;;;;;;;;;;8.53;36.46;101215.03;4463459;32;34226;-67
2022/01/19 03:47:07;;;;;;;;;;;;;;;8.61;35.50;101215.59;4460915;32;34142;-66
2022/01/19 03:49:34;;;;;;;;;;;;;;;8.57;36.02;101210.44;4462721;32;32809;-65
2022/01/19 03:52:03;;;;;;;;;;;;;;;8.63;35.83;101211.06;4464659;32;34297;-65
2022/01/19 03:54:32;;;;;;;;;;;;;;;8.61;36.51;101204.06;4464953;32;34103;-68
2022/01/19 03:57:00;;;;;;;;;;;;;;;8.69;35.71;101214.38;4465240;32;33233;-67
2022/01/19 03:59:28;;;;;;;;;;;;;;;8.78;35.45;101200.63;4463149;32;32604;-67
2022/01/19 04:01:57;;;;;;;;;;;;;;;8.90;35.49;101208.09;4464085;32;33725;-66
2022/01/19 04:09:30;;;;;;;;;;;;;;;8.90;35.00;101208.09;4459143;32;32418;-67
2022/01/19 04:11:57;;;;;;;;;;;;;;;8.79;35.64;101205.03;4465468;32;35158;-67
2022/01/19 04:14:25;;;;;;;;;;;;;;;9.01;34.74;101210.28;4464821;32;34184;-66
2022/01/19 04:16:54;;;;;;;;;;;;;;;8.93;34.59;101212.44;4465519;32;35146;-66
2022/01/19 04:19:26;;;;;;;;;;;;;;;9.01;34.47;101205.81;4461250;32;33094;-66
2022/01/19 04:21:55;;;;;;;;;;;;;;;8.83;36.02;101214.66;4463956;32;34962;-66
2022/01/19 04:24:22;;;;;;;;;;;;;;;8.54;35.96;101208.78;4461063;32;35902;-66
2022/01/19 04:26:58;;;;;;;;;;;;;;;8.73;35.44;101199.97;4465177;32;33768;-66
2022/01/19 04:29:26;;;;;;;;;;;;;;;8.64;35.59;101195.91;4462656;32;33484;-68
2022/01/19 04:31:53;;;;;;;;;;;;;;;8.85;34.65;101194.94;4464753;32;33736;-66
2022/01/19 04:34:22;;;;;;;;;;;;;;;8.85;34.30;101189.59;4463776;32;34459;-67
2022/01/19 04:43:53;;;;;;;;;;;;;;;8.97;34.61;101193.53;4458099;32;33957;-71
2022/01/19 05:06:41;;;;;;;;;;;;;;;8.42;35.15;101174.62;4462267;32;34406;-70
2022/01/19 05:09:28;;;;;;;;;;;;;;;8.27;35.50;101164.56;4458509;32;34086;-70
2022/01/19 05:14:42;;;;;;;;;;;;;;;8.34;34.86;101166.91;4465438;32;33005;-68
2022/01/19 05:17:09;;;;;;;;;;;;;;;8.30;34.54;101170.62;4463741;32;35345;-66
2022/01/19 05:19:37;;;;;;;;;;;;;;;8.43;33.93;101164.81;4464267;32;34545;-71
2022/01/19 05:22:05;;;;;;;;;;;;;;;8.17;34.88;101164.94;4462926;32;33723;-72
2022/01/19 05:24:34;;;;;;;;;;;;;;;8.01;35.49;101161.19;4464483;32;33779;-70
2022/01/19 05:27:04;;;;;;;;;;;;;;;8.42;33.58;101157.75;4464013;32;33663;-71
2022/01/19 05:29:31;;;;;;;;;;;;;;;8.43;33.71;101164.81;4458688;32;33715;-69
2022/01/19 05:31:59;;;;;;;;;;;;;;;8.55;33.31;101161.63;4462181;32;33123;-69
2022/01/19 05:34:26;;;;;;;;;;;;;;;8.44;33.71;101162.06;4464624;32;33822;-71
2022/01/19 05:36:54;;;;;;;;;;;;;;;8.36;34.29;101169.50;4463556;32;34163;-70
2022/01/19 05:39:23;;;;;;;;;;;;;;;8.36;34.29;101164.19;4458444;32;34204;-70
2022/01/19 05:41:52;;;;;;;;;;;;;;;8.49;33.27;101157.41;4464998;32;33637;-69
2022/01/19 05:44:20;;;;;;;;;;;;;;;8.24;34.12;101156.69;4462764;32;33841;-69
2022/01/19 05:46:48;;;;;;;;;;;;;;;8.40;33.81;101160.47;4464299;32;34261;-70
2022/01/19 05:49:15;;;;;;;;;;;;;;;8.10;34.58;101155.47;4461593;32;35012;-70
2022/01/19 05:51:43;;;;;;;;;;;;;;;8.54;33.29;101163.41;4465175;32;33204;-70
2022/01/19 05:54:11;;;;;;;;;;;;;;;8.53;33.04;101159.00;4463541;32;33798;-71
2022/01/19 05:56:38;;;;;;;;;;;;;;;8.48;33.15;101157.50;4464403;32;35223;-70
2022/01/19 05:59:06;;;;;;;;;;;;;;;8.49;33.46;101154.75;4463076;32;33588;-69
2022/01/19 06:01:33;;;;;;;;;;;;;;;8.42;34.07;101161.28;4461939;32;33010;-69
2022/01/19 06:04:01;;;;;;;;;;;;;;;7.93;34.38;101158.84;4462669;32;35223;-70
2022/01/19 06:06:31;;;;;;;;;;;;;;;7.31;36.52;101170.22;4463885;32;34323;-69
2022/01/19 06:09:02;;;;;;;;;;;;;;;7.58;35.01;101170.09;4457307;32;33977;-70
2022/01/19 06:11:30;;;;;;;;;;;;;;;7.82;34.64;101168.22;4461797;32;32169;-68
2022/01/19 06:14:00;;;;;;;;;;;;;;;7.98;34.43;101165.78;4463918;32;33544;-67
2022/01/19 06:16:27;;;;;;;;;;;;;;;7.85;35.02;101163.63;4463481;32;35522;-67
2022/01/19 06:18:56;;;;;;;;;;;;;;;8.12;34.12;101166.97;4463389;32;33815;-67
2022/01/19 06:21:23;;;;;;;;;;;;;;;8.20;33.66;101157.75;4464384;32;32986;-66
2022/01/19 06:23:51;;;;;;;;;;;;;;;8.18;33.81;101165.81;4462537;32;34186;-67
2022/01/19 06:26:19;;;;;;;;;;;;;;;7.76;35.44;101171.12;4460762;32;34399;-68
2022/01/19 06:28:46;;;;;;;;;;;;;;;7.07;36.88;101177.34;4462870;32;35133;-66
2022/01/19 06:31:13;;;;;;;;;;;;;;;7.55;36.03;101170.22;4464740;32;33100;-68
2022/01/19 06:33:41;;;;;;;;;;;;;;;7.68;35.55;101180.31;4461952;32;34002;-66
2022/01/19 06:36:08;;;;;;;;;;;;;;;8.10;33.92;101178.63;4463740;32;36442;-64
2022/01/19 06:38:36;;;;;;;;;;;;;;;8.20;34.12;101157.75;4460049;32;33754;-68
2022/01/19 06:41:04;;;;;;;;;;;;;;;7.94;35.37;101165.06;4462748;32;34450;-69
2022/01/19 06:43:32;;;;;;;;;;;;;;;8.18;34.31;101165.81;4464683;32;35258;-70
2022/01/19 06:46:00;;;;;;;;;;;;;;;8.50;32.87;101167.12;4463499;32;34063;-72
2022/01/19 06:48:28;;;;;;;;;;;;;;;8.50;33.09;101164.47;4464377;32;34298;-71
2022/01/19 06:50:56;;;;;;;;;;;;;;;8.56;34.01;101166.88;4466563;32;33281;-71
2022/01/19 06:53:24;;;;;;;;;;;;;;;8.55;34.00;101159.81;4461935;32;33882;-72
2022/01/19 06:55:51;;;;;;;;;;;;;;;8.85;33.48;101154.91;4465517;32;34152;-72
2022/01/19 06:58:19;;;;;;;;;;;;;;;9.10;32.83;101156.47;4466270;32;33112;-72
2022/01/19 07:00:48;;;;;;;;;;;;;;;9.38;31.95;101163.19;4466851;32;31894;-72
2022/01/19 07:03:16;;;;;;;;;;;;;;;9.68;31.68;101158.19;4464538;32;35241;-72
2022/01/19 07:05:44;;;;;;;;;;;;;;;9.55;32.13;101149.88;4467279;32;35385;-72
2022/01/19 07:08:13;;;;;;;;;;;;;;;9.85;31.64;101144.84;4465457;32;34156;-72
2022/01/19 07:10:41;;;;;;;;;;;;;;;10.39;30.75;101140.34;4466293;32;32703;-70
2022/01/19 07:13:09;;;;;;;;;;;;;;;10.57;30.22;101137.66;4466663;32;34998;-70
2022/01/19 07:15:37;;;;;;;;;;;;;;;10.89;29.55;101142.16;4466123;32;34232;-69
2022/01/19 07:18:05;;;;;;;;;;;;;;;11.11;30.05;101133.84;4467924;32;34271;-70
2022/01/19 07:20:36;;;;;;;;;;;;;;;11.81;28.73;101128.09;4467608;32;33175;-70
2022/01/19 07:23:03;;;;;;;;;;;;;;;11.65;29.25;101123.66;4468520;32;34009;-70
2022/01/19 07:25:31;;;;;;;;;;;;;;;11.62;28.43;101121.13;4464064;32;35745;-70
2022/01/19 07:27:58;;;;;;;;;;;;;;;12.01;28.40;101121.63;4467876;32;37059;-70
2022/01/19 07:30:28;;;;;;;;;;;;;;;12.46;27.61;101123.38;4467539;32;33440;-70
2022/01/19 07:32:56;;;;;;;;;;;;;;;12.65;27.79;101115.06;4468170;32;34626;-70
2022/01/19 07:35:23;;;;;;;;;;;;;;;13.31;26.53;101110.91;4467197;32;34926;-69
2022/01/19 07:37:50;;;;;;;;;;;;;;;13.43;26.05;101117.34;4463191;32;146116;-69
2022/01/19 07:40:18;;;;;;;;;;;;;;;13.90;26.05;101102.56;4458117;32;32050;-69
2022/01/19 07:42:46;;;;;;;;;;;;;;;13.57;26.61;101098.47;4465803;32;33736;-69
2022/01/19 07:45:14;;;;;;;;;;;;;;;10.76;30.85;101097.38;4461820;32;34184;-70
2022/01/19 07:47:42;;;;;;;;;;;;;;;11.93;29.40;101092.56;4462792;32;35209;-70
2022/01/19 07:50:09;;;;;;;;;;;;;;;12.72;27.87;101100.28;4462273;32;32648;-70
2022/01/19 07:52:37;;;;;;;;;;;;;;;13.39;26.50;101094.31;4464230;32;33620;-69
2022/01/19 07:55:05;;;;;;;;;;;;;;;13.16;27.04;101095.72;4460731;32;35090;-69
2022/01/19 07:57:33;;;;;;;;;;;;;;;12.82;27.32;101101.44;4463866;32;34461;-69
2022/01/19 08:00:01;;;;;;;;;;;;;;;12.90;27.49;101094.72;4464356;32;34068;-69
2022/01/19 08:02:33;;;;;;;;;;;;;;;14.00;25.86;101095.63;4464156;32;35126;-70
2022/01/19 08:05:07;;;;;;;;;;;;;;;14.32;25.34;101096.09;4460779;32;35583;-69
2022/01/19 08:07:36;;;;;;;;;;;;;;;13.71;26.17;101101.13;4462570;32;34200;-70
2022/01/19 08:10:05;;;;;;;;;;;;;;;13.37;26.50;101093.53;4461225;32;34116;-70
2022/01/19 08:12:33;;;;;;;;;;;;;;;12.88;27.67;101097.50;4463825;32;34749;-69
2022/01/19 08:15:00;;;;;;;;;;;;;;;12.71;27.91;101092.31;4462808;32;34197;-69
2022/01/19 08:17:28;;;;;;;;;;;;;;;12.47;28.70;101090.19;4462311;32;34000;-69
2022/01/19 08:19:55;;;;;;;;;;;;;;;12.39;29.37;101086.22;4463826;32;32921;-70
2022/01/19 08:22:23;;;;;;;;;;;;;;;12.49;29.42;101087.44;4464685;32;34897;-70
2022/01/19 08:24:52;;;;;;;;;;;;;;;12.91;28.66;101077.66;4466072;32;35358;-69
2022/01/19 08:27:19;;;;;;;;;;;;;;;13.84;27.62;101068.88;4465150;32;34230;-70
2022/01/19 08:29:47;;;;;;;;;;;;;;;15.25;25.73;101058.97;4464089;32;33107;-69
2022/01/19 08:32:17;;;;;;;;;;;;;;;15.37;25.41;101065.28;4463312;32;34652;-70
2022/01/19 08:35:02;;;;;;;;;;;;;;;15.45;25.75;101073.69;4465338;32;34245;-69
2022/01/19 08:37:34;;;;;;;;;;;;;;;15.95;24.89;101066.31;4466194;32;34220;-70
2022/01/19 08:40:04;;;;;;;;;;;;;;;16.17;24.51;101070.94;4465326;32;34363;-69
2022/01/19 08:42:33;;;;;;;;;;;;;;;15.98;24.82;101076.03;4458462;32;33712;-69
2022/01/19 08:45:07;;;;;;;;;;;;;;;17.04;23.71;101075.84;4465963;32;35460;-71
2022/01/19 08:47:35;;;;;;;;;;;;;;;16.85;23.49;101065.66;4464509;32;33925;-70
2022/01/19 08:50:04;;;;;;;;;;;;;;;16.43;24.33;101074.31;4466966;31;33165;-70
2022/01/19 08:52:34;;;;;;;;;;;;;;;16.38;24.48;101076.53;4464335;32;36834;-70
2022/01/19 08:55:02;;;;;;;;;;;;;;;16.50;24.20;101069.28;4462441;32;34459;-70
2022/01/19 08:57:29;;;;;;;;;;;;;;;17.07;24.05;101072.91;4460105;32;33879;-70
2022/01/19 08:59:57;;;;;;;;;;;;;;;16.74;24.33;101066.50;4465775;32;33569;-70
2022/01/19 09:02:24;;;;;;;;;;;;;;;16.13;24.86;101065.91;4462221;32;33976;-70
2022/01/19 09:04:52;;;;;;;;;;;;;;;15.98;25.15;101057.13;4463691;32;34329;-70
2022/01/19 09:07:20;;;;;;;;;;;;;;;15.43;26.15;101069.34;4460322;32;34797;-70
2022/01/19 09:09:47;;;;;;;;;;;;;;;15.53;25.89;101063.16;4464479;32;32838;-69
2022/01/19 09:12:15;;;;;;;;;;;;;;;15.68;26.05;101050.37;4462695;32;35335;-69
2022/01/19 09:14:42;;;;;;;;;;;;;;;15.51;26.12;101058.88;4463781;32;34171;-69
2022/01/19 09:17:10;;;;;;;;;;;;;;;15.80;25.72;101056.72;4462215;32;34101;-70
2022/01/19 09:19:39;;;;;;;;;;;;;;;16.45;25.12;101055.28;4465354;32;33053;-69
2022/01/19 09:22:07;;;;;;;;;;;;;;;16.37;25.03;101057.72;4464359;32;33677;-69
2022/01/19 09:24:35;;;;;;;;;;;;;;;16.59;24.85;101067.69;4464037;32;33740;-70
2022/01/19 09:27:03;;;;;;;;;;;;;;;18.15;22.82;101054.88;4462909;32;35154;-70
2022/01/19 09:29:31;;;;;;;;;;;;;;;19.46;21.44;101055.06;4460977;32;34098;-70
2022/01/19 09:32:00;;;;;;;;;;;;;;;20.21;20.37;101057.09;4462740;32;34069;-69
2022/01/19 09:34:28;;;;;;;;;;;;;;;19.85;20.88;101052.41;4463027;32;33293;-70
2022/01/19 09:36:55;;;;;;;;;;;;;;;19.03;21.53;101054.34;4462194;32;33595;-70
2022/01/19 09:39:24;;;;;;;;;;;;;;;18.05;22.76;101051.25;4462292;32;34488;-70
2022/01/19 09:41:52;;;;;;;;;;;;;;;17.78;23.03;101041.75;4460360;32;34126;-69
2022/01/19 09:44:21;;;;;;;;;;;;;;;17.27;23.87;101042.41;4463504;32;34086;-69
2022/01/19 09:46:48;;;;;;;;;;;;;;;17.11;24.16;101047.31;4463994;32;34182;-69
2022/01/19 09:49:17;;;;;;;;;;;;;;;16.55;24.62;101045.47;4463896;32;33427;-70
2022/01/19 09:51:46;;;;;;;;;;;;;;;16.33;24.98;101040.87;4459661;32;34410;-69
2022/01/19 09:54:21;;;;;;;;;;;;;;;15.73;25.59;101026.63;4462258;32;34518;-69
2022/01/19 09:56:49;;;;;;;;;;;;;;;15.07;26.85;101014.47;4464337;32;34152;-69
2022/01/19 09:59:16;;;;;;;;;;;;;;;14.76;27.36;101011.28;4460130;32;33271;-70
2022/01/19 10:01:54;;;;;;;;;;;;;;;14.78;27.51;101003.97;4456946;32;35050;-69
2022/01/19 10:04:23;;;;;;;;;;;;;;;14.54;27.73;101006.59;4463406;32;33352;-69
2022/01/19 10:06:51;;;;;;;;;;;;;;;14.51;27.96;100995.16;4463489;32;34219;-70
2022/01/19 10:09:22;;;;;;;;;;;;;;;14.87;27.54;100988.97;4461716;32;34170;-69
2022/01/19 10:17:09;;;;;;;;;;;;;;;15.77;26.88;100974.12;4462702;31;34962;-70
2022/01/19 10:19:42;;;;;;;;;;;;;;;17.16;24.70;100964.81;4466560;32;32952;-69
2022/01/19 10:22:15;;;;;;;;;;;;;;;17.67;24.14;100956.00;4465527;32;33435;-69
2022/01/19 10:24:53;;;;;;;;;;;;;;;19.70;21.46;100941.47;4466963;32;34155;-69
2022/01/19 10:27:23;;;;;;;;;;;;;;;20.87;19.93;100949.25;4466270;32;34248;-70
2022/01/19 10:30:14;;;;;;;;;;;;;;;20.46;20.24;100946.00;4466241;32;33275;-69
2022/01/19 10:32:46;;;;;;;;;;;;;;;20.53;20.01;100938.13;4459887;32;34160;-69
2022/01/19 10:35:17;;;;;;;;;;;;;;;20.62;19.71;100931.78;4466133;32;34310;-69
2022/01/19 10:37:45;;;;;;;;;;;;;;;20.24;19.93;100923.59;4465707;32;34379;-69
2022/01/19 10:40:13;;;;;;;;;;;;;;;20.01;20.29;100922.25;4462103;32;34058;-69
2022/01/19 10:42:41;;;;;;;;;;;;;;;20.40;20.12;100909.38;4463757;32;34310;-69
2022/01/19 10:45:09;;;;;;;;;;;;;;;20.98;19.57;100905.50;4465466;32;35070;-70
2022/01/19 10:47:49;;;;;;;;;;;;;;;21.89;18.59;100909.88;4465894;32;34504;-70
2022/01/19 10:50:21;;;;;;;;;;;;;;;21.14;18.99;100900.22;4464845;32;33243;-70
2022/01/19 10:52:49;;;;;;;;;;;;;;;20.98;19.65;100885.59;4465364;32;35241;-70
2022/01/19 10:55:19;;;;;;;;;;;;;;;21.43;18.58;100882.81;4464287;32;34308;-70
2022/01/19 10:57:47;;;;;;;;;;;;;;;20.47;19.49;100890.59;4464877;32;32884;-70
2022/01/19 11:00:28;;;;;;;;;;;;;;;19.11;20.90;100880.03;4458992;32;34334;-70
2022/01/19 11:02:56;;;;;;;;;;;;;;;18.06;22.62;100882.28;4464880;32;35258;-70
2022/01/19 11:05:44;;;;;;;;;;;;;;;17.95;22.68;100877.81;4464698;32;33060;-70
2022/01/19 11:08:12;;;;;;;;;;;;;;;17.53;23.05;100866.09;4463386;32;34399;-70
2022/01/19 11:10:39;;;;;;;;;;;;;;;17.11;23.70;100864.25;4464286;32;33365;-70
2022/01/19 11:13:13;;;;;;;;;;;;;;;17.55;23.02;100862.28;4464937;32;35089;-70
2022/01/19 11:15:44;;;;;;;;;;;;;;;16.96;24.29;100854.72;4463583;32;34621;-70
2022/01/19 11:18:11;;;;;;;;;;;;;;;17.19;24.21;100845.50;4462176;32;33220;-70
2022/01/19 11:20:43;;;;;;;;;;;;;;;17.69;23.21;100832.19;4466812;32;33352;-70
2022/01/19 11:23:15;;;;;;;;;;;;;;;17.41;23.84;100827.44;4463840;32;33649;-70
2022/01/19 11:25:42;;;;;;;;;;;;;;;17.31;23.70;100831.94;4463060;32;34272;-70
2022/01/19 11:28:27;;;;;;;;;;;;;;;17.50;23.24;100820.41;4457457;32;35438;-70
2022/01/19 11:30:55;;;;;;;;;;;;;;;17.88;23.20;100828.75;4462686;32;33390;-69
2022/01/19 11:33:25;;;;;;;;;;;;;;;17.98;23.50;100817.97;4463893;32;33746;-70
2022/01/19 11:35:54;;;;;;;;;;;;;;;17.86;23.41;100800.94;4465340;32;34154;-70
2022/01/19 11:38:40;;;;;;;;;;;;;;;17.30;23.90;100801.28;4464555;32;34222;-70
2022/01/19 11:41:07;;;;;;;;;;;;;;;17.47;23.63;100799.84;4461012;32;33990;-73
2022/01/19 11:43:35;;;;;;;;;;;;;;;17.20;24.30;100794.97;4464021;32;34988;-72
2022/01/19 11:46:03;;;;;;;;;;;;;;;16.05;25.74;100791.91;4464669;32;34521;-72
2022/01/19 11:48:35;;;;;;;;;;;;;;;16.35;25.28;100779.56;4465446;32;32836;-72
2022/01/19 11:51:20;;;;;;;;;;;;;;;16.38;25.40;100783.88;4459724;32;32136;-70
2022/01/19 11:53:58;;;;;;;;;;;;;;;15.96;25.58;100784.56;4461967;32;34156;-71
2022/01/19 11:56:26;;;;;;;;;;;;;;;16.06;25.96;100780.13;4465398;32;33051;-71
2022/01/19 11:59:01;;;;;;;;;;;;;;;15.35;26.49;100778.59;4462905;32;33611;-70
2022/01/19 12:01:28;;;;;;;;;;;;;;;15.74;26.38;100780.00;4464687;32;34335;-71
2022/01/19 12:04:11;;;;;;;;;;;;;;;15.60;26.58;100769.41;4465555;32;34547;-71
2022/01/19 12:06:39;;;;;;;;;;;;;;;15.36;27.51;100770.38;4462938;32;34482;-72
2022/01/19 12:09:09;;;;;;;;;;;;;;;15.45;26.71;100763.41;4461273;32;34533;-72
2022/01/19 12:11:39;;;;;;;;;;;;;;;15.44;27.07;100764.41;4462897;32;34463;-73
2022/01/19 12:14:12;;;;;;;;;;;;;;;15.43;27.34;100759.09;4465168;32;33780;-73
2022/01/19 12:19:07;;;;;;;;;;;;;;;14.64;28.10;100740.06;4458765;32;34219;-70
2022/01/19 12:21:36;;;;;;;;;;;;;;;14.36;28.54;100741.25;4468857;32;32410;-70
2022/01/19 12:24:33;;;;;;;;;;;;;;;13.53;29.46;100736.53;4460035;32;35181;-71
2022/01/19 12:27:00;;;;;;;;;;;;;;;13.91;29.46;100738.28;4462380;32;34014;-71
2022/01/19 12:29:37;;;;;;;;;;;;;;;13.63;29.69;100739.41;4457870;32;34214;-70
2022/01/19 12:32:09;;;;;;;;;;;;;;;13.31;30.33;100721.03;4462437;32;33139;-71
2022/01/19 12:34:39;;;;;;;;;;;;;;;13.67;29.87;100727.44;4460326;32;33526;-71
2022/01/19 12:37:07;;;;;;;;;;;;;;;13.02;30.50;100731.97;4459125;32;34297;-71
2022/01/19 12:39:35;;;;;;;;;;;;;;;13.87;29.74;100724.19;4458755;32;34249;-70
2022/01/19 12:42:07;;;;;;;;;;;;;;;14.08;29.84;100720.88;4464722;32;32152;-71
2022/01/19 12:44:34;;;;;;;;;;;;;;;13.79;29.48;100706.88;4457935;32;34308;-70
2022/01/19 12:47:03;;;;;;;;;;;;;;;13.22;30.44;100709.06;4463602;31;34121;-70
2022/01/19 12:49:30;;;;;;;;;;;;;;;13.77;29.96;100708.81;4459608;32;34580;-70
2022/01/19 12:51:59;;;;;;;;;;;;;;;13.64;30.25;100701.66;4453834;32;32888;-69
2022/01/19 12:54:28;;;;;;;;;;;;;;;13.23;31.09;100701.91;4458348;32;35252;-69
2022/01/19 12:57:02;;;;;;;;;;;;;;;12.83;31.07;100689.38;4461129;32;34952;-69
2022/01/19 12:59:31;;;;;;;;;;;;;;;12.89;31.04;100695.31;4464724;32;34035;-70
2022/01/19 13:01:59;;;;;;;;;;;;;;;12.88;30.92;100681.03;4461326;32;34519;-70
2022/01/19 13:04:28;;;;;;;;;;;;;;;13.43;30.00;100682.53;4462924;32;34228;-71
2022/01/19 13:07:22;;;;;;;;;;;;;;;11.72;33.27;100681.63;4459768;32;34388;-70
2022/01/19 13:10:03;;;;;;;;;;;;;;;12.59;32.33;100669.62;4460124;32;33367;-70
2022/01/19 13:12:37;;;;;;;;;;;;;;;12.73;31.58;100672.19;4461653;32;34400;-69
2022/01/19 13:15:05;;;;;;;;;;;;;;;12.76;31.73;100665.75;4461063;32;34095;-68
2022/01/19 13:17:39;;;;;;;;;;;;;;;13.11;31.11;100657.06;4469943;31;35519;-70
2022/01/19 13:20:11;;;;;;;;;;;;;;;12.52;31.84;100654.84;4462355;32;35142;-69
2022/01/19 13:22:43;;;;;;;;;;;;;;;12.17;32.75;100660.81;4465060;32;33505;-69
2022/01/19 13:25:15;;;;;;;;;;;;;;;11.79;33.43;100653.44;4462964;32;34473;-69
2022/01/19 13:27:43;;;;;;;;;;;;;;;11.50;33.56;100657.16;4468953;32;33882;-70
2022/01/19 13:30:15;;;;;;;;;;;;;;;11.98;33.32;100647.75;4470207;32;33293;-69
2022/01/19 13:32:43;;;;;;;;;;;;;;;11.42;33.90;100653.13;4465729;32;34081;-69
2022/01/19 13:35:10;;;;;;;;;;;;;;;10.31;36.37;100650.19;4459384;32;34103;-70
2022/01/19 13:37:39;;;;;;;;;;;;;;;10.20;37.27;100649.91;4463981;32;32605;-69
2022/01/19 13:40:11;;;;;;;;;;;;;;;9.74;36.86;100634.72;4465036;32;33605;-69
2022/01/19 13:42:41;;;;;;;;;;;;;;;9.89;37.47;100627.63;4458282;32;33133;-69
2022/01/19 13:46:13;;;;;;;;;;;;;;;10.62;36.25;100633.13;4464132;32;34472;-70
2022/01/19 13:51:18;;;;;;;;;;;;;;;9.92;37.53;100622.12;4462335;32;34217;-69
2022/01/19 13:53:49;;;;;;;;;;;;;;;10.62;36.07;100616.19;4411394;32;34398;-69
2022/01/19 13:56:28;;;;;;;;;;;;;;;10.24;36.69;100622.91;4457858;32;34027;-69
2022/01/19 13:59:00;;;;;;;;;;;;;;;10.70;36.48;100614.78;4472587;32;34038;-69
2022/01/19 14:01:34;;;;;;;;;;;;;;;11.26;35.54;100598.78;4462949;32;33973;-70
2022/01/19 14:04:08;;;;;;;;;;;;;;;10.60;36.39;100602.06;4462703;32;33405;-70
2022/01/19 14:06:39;;;;;;;;;;;;;;;11.19;36.16;100597.44;4459693;32;33790;-68
2022/01/19 14:09:10;;;;;;;;;;;;;;;11.90;34.53;100591.06;4466147;32;33977;-70
2022/01/19 14:11:38;;;;;;;;;;;;;;;12.53;33.24;100581.41;4458575;32;32791;-70
2022/01/19 14:14:07;;;;;;;;;;;;;;;11.82;34.24;100596.06;4461847;32;33190;-70
2022/01/19 14:16:41;;;;;;;;;;;;;;;12.25;33.62;100588.66;4459227;32;34802;-70
2022/01/19 14:19:12;;;;;;;;;;;;;;;11.99;34.12;100585.09;4467551;31;33228;-70
2022/01/19 14:21:59;;;;;;;;;;;;;;;11.73;34.52;100585.94;4460387;32;34380;-69